Time;durP1;ratioP1;P1;durP2;ratioP2;P2;SDS_P1;SDS_P2;PMS_P1;PMS_P2;Temp;Humidity;BMP_temperature;BMP_pressure;BME280_temperature;BME280_humidity;BME280_pressure;Samples;Min_cycle;Max_cycle;Signal;HPM_P1;HPM_P2
2022/07/21 00:01:04;;;;;;;;;;;20.80;86.60;;;;;;5030963;28;20343;-77
2022/07/21 00:03:30;;;;;;;;;;;20.90;85.90;;;;;;5031753;28;19928;-77
2022/07/21 00:05:55;;;;;;;;;;;20.90;85.40;;;;;;5032050;28;19921;-77
2022/07/21 00:08:21;;;;;;;;;;;21.00;85.10;;;;;;5031189;28;19988;-77
2022/07/21 00:10:46;;;;;;;;;;;21.00;84.90;;;;;;5013886;28;19915;-77
2022/07/21 00:13:12;;;;;;;;;;;21.10;85.40;;;;;;5032110;28;20396;-77
2022/07/21 00:15:37;;;;;;;;;;;21.00;85.50;;;;;;5031986;28;19913;-77
2022/07/21 00:18:03;;;;;;;;;;;21.00;84.70;;;;;;5032120;28;20003;-77
2022/07/21 00:20:30;;;;;;;;;;;21.00;84.40;;;;;;5014421;28;19940;-76
2022/07/21 00:22:56;;;;;;;;;;;21.00;84.90;;;;;;5029511;28;19921;-77
2022/07/21 00:25:21;;;;;;;;;;;20.90;84.90;;;;;;5032081;28;20315;-77
2022/07/21 00:27:46;;;;;;;;;;;20.90;85.50;;;;;;5014176;28;20127;-77
2022/07/21 00:30:12;;;;;;;;;;;20.90;85.40;;;;;;5031859;28;20319;-77
2022/07/21 00:32:38;;;;;;;;;;;20.80;85.20;;;;;;5031498;28;19956;-77
2022/07/21 00:35:05;;;;;;;;;;;20.70;85.60;;;;;;5031760;28;19921;-77
2022/07/21 00:37:31;;;;;;;;;;;20.70;85.60;;;;;;5013545;28;19913;-76
2022/07/21 00:39:56;;;;;;;;;;;20.80;85.70;;;;;;5027195;28;19925;-77
2022/07/21 00:42:22;;;;;;;;;;;20.70;85.30;;;;;;5031477;28;19928;-77
2022/07/21 00:44:48;;;;;;;;;;;20.70;84.90;;;;;;5013641;28;19959;-77
2022/07/21 00:47:13;;;;;;;;;;;20.60;85.30;;;;;;5013994;28;19917;-77
2022/07/21 00:49:40;;;;;;;;;;;20.50;84.90;;;;;;5030863;28;19984;-77
2022/07/21 00:52:06;;;;;;;;;;;20.60;83.90;;;;;;5030471;28;19940;-77
2022/07/21 00:54:31;;;;;;;;;;;20.60;84.70;;;;;;5031188;28;19921;-77
2022/07/21 00:56:56;;;;;;;;;;;20.60;85.30;;;;;;5013771;28;20413;-77
2022/07/21 00:59:22;;;;;;;;;;;20.60;85.40;;;;;;5031397;28;19909;-77
2022/07/21 01:01:47;;;;;;;;;;;20.50;85.20;;;;;;5012068;28;19933;-76
2022/07/21 01:04:13;;;;;;;;;;;20.50;84.90;;;;;;5031647;28;19910;-77
2022/07/21 01:06:38;;;;;;;;;;;20.50;85.40;;;;;;5021694;28;19964;-76
2022/07/21 01:09:04;;;;;;;;;;;20.50;85.60;;;;;;5030297;28;19909;-77
2022/07/21 01:11:30;;;;;;;;;;;20.50;85.80;;;;;;5031160;28;19919;-77
2022/07/21 01:13:56;;;;;;;;;;;20.50;85.80;;;;;;5029461;28;19918;-76
2022/07/21 01:16:21;;;;;;;;;;;20.50;85.90;;;;;;5026838;28;19924;-77
2022/07/21 01:18:47;;;;;;;;;;;20.50;86.00;;;;;;5030304;28;20176;-77
2022/07/21 01:21:32;;;;;;;;;;;20.50;85.50;;;;;;5031435;28;19909;-77
2022/07/21 01:23:58;;;;;;;;;;;20.50;86.10;;;;;;5012620;28;19915;-77
2022/07/21 01:26:24;;;;;;;;;;;20.60;85.90;;;;;;5031433;28;19909;-77
2022/07/21 01:28:49;;;;;;;;;;;20.50;85.90;;;;;;5030555;28;19964;-77
2022/07/21 01:31:15;;;;;;;;;;;20.60;85.90;;;;;;5011456;28;20451;-76
2022/07/21 01:33:40;;;;;;;;;;;20.60;85.90;;;;;;5012811;28;19917;-77
2022/07/21 01:36:06;;;;;;;;;;;20.60;85.40;;;;;;5030136;28;19917;-76
2022/07/21 01:41:32;;;;;;;;;;;20.50;84.90;;;;;;5030993;28;20496;-76
2022/07/21 01:43:59;;;;;;;;;;;20.50;85.20;;;;;;5031187;28;20008;-76
2022/07/21 01:46:25;;;;;;;;;;;20.50;85.60;;;;;;5029685;28;20265;-77
2022/07/21 01:48:51;;;;;;;;;;;20.50;85.70;;;;;;5030146;28;19996;-77
2022/07/21 01:51:16;;;;;;;;;;;20.40;86.00;;;;;;5029799;28;19917;-77
2022/07/21 01:53:42;;;;;;;;;;;20.40;86.30;;;;;;5029960;28;19971;-77
2022/07/21 01:56:07;;;;;;;;;;;20.30;86.40;;;;;;5010724;28;19929;-77
2022/07/21 01:58:33;;;;;;;;;;;20.30;86.70;;;;;;5027535;28;19913;-77
2022/07/21 02:00:58;;;;;;;;;;;20.30;86.70;;;;;;5021362;28;19917;-77
2022/07/21 02:03:24;;;;;;;;;;;20.20;86.70;;;;;;5028657;28;20007;-77
2022/07/21 02:05:49;;;;;;;;;;;20.20;86.80;;;;;;5029261;28;19913;-77
2022/07/21 02:08:15;;;;;;;;;;;20.30;86.90;;;;;;5030965;28;20258;-77
2022/07/21 02:10:40;;;;;;;;;;;20.20;87.00;;;;;;5028622;28;20297;-77
2022/07/21 02:13:06;;;;;;;;;;;20.10;87.00;;;;;;5028431;28;19913;-78
2022/07/21 02:15:31;;;;;;;;;;;20.10;87.20;;;;;;5029330;28;19974;-78
2022/07/21 02:17:57;;;;;;;;;;;20.10;87.60;;;;;;5030769;28;19928;-78
2022/07/21 02:20:23;;;;;;;;;;;20.00;87.80;;;;;;5031230;28;19924;-78
2022/07/21 02:22:49;;;;;;;;;;;20.00;88.10;;;;;;5032876;28;20006;-79
2022/07/21 02:25:15;;;;;;;;;;;19.90;87.80;;;;;;5029502;28;20003;-79
2022/07/21 02:27:42;;;;;;;;;;;19.80;88.30;;;;;;5030700;28;19909;-79
2022/07/21 02:30:08;;;;;;;;;;;19.80;88.30;;;;;;5025478;28;20003;-79
2022/07/21 02:32:33;;;;;;;;;;;19.80;88.00;;;;;;5032068;28;19952;-79
2022/07/21 02:34:58;;;;;;;;;;;19.80;87.90;;;;;;5028648;28;20330;-79
2022/07/21 02:37:24;;;;;;;;;;;19.70;88.00;;;;;;5028266;28;19940;-79
2022/07/21 02:39:49;;;;;;;;;;;19.60;87.80;;;;;;5029523;28;19909;-78
2022/07/21 02:42:15;;;;;;;;;;;19.60;88.10;;;;;;5028654;28;19925;-78
2022/07/21 02:44:40;;;;;;;;;;;19.60;88.20;;;;;;5009773;28;19913;-79
2022/07/21 02:47:06;;;;;;;;;;;19.60;88.00;;;;;;5008751;28;19998;-79
2022/07/21 02:49:31;;;;;;;;;;;19.50;88.00;;;;;;5030118;28;19917;-79
2022/07/21 02:51:57;;;;;;;;;;;19.50;87.90;;;;;;5032568;28;19917;-79
2022/07/21 02:54:22;;;;;;;;;;;19.50;87.80;;;;;;5032244;28;20063;-78
2022/07/21 02:56:48;;;;;;;;;;;19.50;87.70;;;;;;5032961;28;20273;-78
2022/07/21 02:59:13;;;;;;;;;;;19.50;87.30;;;;;;5029565;28;19913;-78
2022/07/21 03:01:39;;;;;;;;;;;19.50;87.60;;;;;;5009811;28;19917;-80
2022/07/21 03:04:04;;;;;;;;;;;19.40;87.30;;;;;;5026151;28;19975;-78
2022/07/21 03:06:30;;;;;;;;;;;19.30;87.10;;;;;;5028733;28;19913;-78
2022/07/21 03:08:55;;;;;;;;;;;19.30;87.60;;;;;;5024778;28;20289;-78
2022/07/21 03:11:21;;;;;;;;;;;19.30;87.50;;;;;;5028267;28;20000;-77
2022/07/21 03:13:46;;;;;;;;;;;19.30;87.70;;;;;;5010165;28;19913;-78
2022/07/21 03:16:12;;;;;;;;;;;19.40;88.10;;;;;;5010892;28;19913;-77
2022/07/21 03:18:37;;;;;;;;;;;19.40;88.10;;;;;;5029445;28;19918;-78
2022/07/21 03:21:03;;;;;;;;;;;19.40;87.90;;;;;;5029455;28;20350;-77
2022/07/21 03:23:28;;;;;;;;;;;19.40;88.00;;;;;;5012172;28;19917;-77
2022/07/21 03:25:54;;;;;;;;;;;19.40;88.20;;;;;;5011190;28;19968;-78
2022/07/21 03:28:19;;;;;;;;;;;19.40;88.60;;;;;;5009531;28;20289;-77
2022/07/21 03:30:45;;;;;;;;;;;19.40;88.70;;;;;;5027924;28;19918;-78
2022/07/21 03:33:10;;;;;;;;;;;19.30;88.50;;;;;;5011536;28;19978;-78
2022/07/21 03:35:36;;;;;;;;;;;19.30;88.50;;;;;;5029296;28;19917;-78
2022/07/21 03:38:02;;;;;;;;;;;19.30;88.10;;;;;;5013228;28;19913;-78
2022/07/21 03:40:29;;;;;;;;;;;19.20;88.50;;;;;;5029110;28;19943;-78
2022/07/21 03:42:55;;;;;;;;;;;19.20;88.20;;;;;;5026758;28;19917;-78
2022/07/21 03:45:21;;;;;;;;;;;19.20;88.30;;;;;;5029823;28;20472;-78
2022/07/21 03:47:47;;;;;;;;;;;19.20;88.80;;;;;;5028613;28;19909;-78
2022/07/21 03:50:14;;;;;;;;;;;19.20;88.40;;;;;;5028941;28;19913;-78
2022/07/21 03:52:39;;;;;;;;;;;19.30;88.30;;;;;;5005574;28;19913;-78
2022/07/21 03:55:08;;;;;;;;;;;19.20;88.80;;;;;;5015203;28;19909;-79
2022/07/21 03:57:40;;;;;;;;;;;19.30;88.90;;;;;;5029828;28;19967;-78
2022/07/21 04:00:08;;;;;;;;;;;19.30;89.30;;;;;;5025439;28;20380;-78
2022/07/21 04:02:33;;;;;;;;;;;19.40;89.40;;;;;;5016921;28;19923;-78
2022/07/21 04:04:59;;;;;;;;;;;19.40;89.10;;;;;;5030155;28;19917;-78
2022/07/21 04:07:24;;;;;;;;;;;19.50;88.70;;;;;;5011403;28;19918;-78
2022/07/21 04:09:50;;;;;;;;;;;19.40;89.10;;;;;;5034792;28;19909;-78
2022/07/21 04:12:16;;;;;;;;;;;19.50;89.00;;;;;;5031084;28;19909;-78
2022/07/21 04:14:41;;;;;;;;;;;19.40;88.90;;;;;;5031487;28;19920;-78
2022/07/21 04:17:07;;;;;;;;;;;19.40;89.00;;;;;;5015115;28;19963;-78
2022/07/21 04:19:32;;;;;;;;;;;19.40;88.60;;;;;;5016682;28;19913;-78
2022/07/21 04:21:58;;;;;;;;;;;19.40;88.40;;;;;;5027480;28;19921;-78
2022/07/21 04:24:23;;;;;;;;;;;19.40;88.10;;;;;;5033987;28;19939;-78
2022/07/21 04:26:49;;;;;;;;;;;19.40;87.70;;;;;;5031076;28;19952;-78
2022/07/21 04:29:14;;;;;;;;;;;19.50;88.20;;;;;;5033838;28;19924;-78
2022/07/21 04:31:40;;;;;;;;;;;19.50;88.40;;;;;;5032817;28;20052;-78
2022/07/21 04:34:05;;;;;;;;;;;19.50;88.70;;;;;;5015425;28;19917;-78
2022/07/21 04:36:31;;;;;;;;;;;19.50;89.00;;;;;;5030899;28;20439;-78
2022/07/21 04:38:56;;;;;;;;;;;19.50;89.10;;;;;;5032618;28;19921;-78
2022/07/21 04:41:22;;;;;;;;;;;19.60;88.40;;;;;;5032357;28;20004;-78
2022/07/21 04:43:47;;;;;;;;;;;19.70;87.80;;;;;;5033280;28;20393;-78
2022/07/21 04:46:12;;;;;;;;;;;19.70;87.90;;;;;;5030184;28;19964;-78
2022/07/21 04:48:38;;;;;;;;;;;19.70;88.00;;;;;;5014283;28;19916;-78
2022/07/21 04:51:03;;;;;;;;;;;19.70;87.70;;;;;;5032222;28;19917;-78
2022/07/21 04:53:29;;;;;;;;;;;19.70;87.80;;;;;;5030871;28;20453;-78
2022/07/21 04:55:54;;;;;;;;;;;19.80;87.60;;;;;;5032618;28;19917;-78
2022/07/21 04:58:20;;;;;;;;;;;19.80;87.30;;;;;;5031630;28;20004;-78
2022/07/21 05:00:45;;;;;;;;;;;19.90;87.50;;;;;;5029620;28;20348;-78
2022/07/21 05:03:13;;;;;;;;;;;19.90;87.20;;;;;;5014607;28;20012;-78
2022/07/21 05:05:39;;;;;;;;;;;19.90;87.20;;;;;;5031016;28;19963;-78
2022/07/21 05:08:04;;;;;;;;;;;20.10;86.50;;;;;;5032804;28;19917;-78
2022/07/21 05:10:30;;;;;;;;;;;20.00;86.20;;;;;;5012541;28;19909;-78
2022/07/21 05:12:55;;;;;;;;;;;20.00;86.70;;;;;;5031499;28;19917;-78
2022/07/21 05:15:21;;;;;;;;;;;20.10;86.70;;;;;;5011762;28;19924;-78
2022/07/21 05:17:46;;;;;;;;;;;20.10;86.70;;;;;;5030738;28;19999;-78
2022/07/21 05:20:12;;;;;;;;;;;20.10;86.70;;;;;;5031633;28;19909;-78
2022/07/21 05:22:38;;;;;;;;;;;20.10;86.60;;;;;;5030797;28;20301;-78
2022/07/21 05:25:03;;;;;;;;;;;20.10;86.50;;;;;;5032537;28;19943;-78
2022/07/21 05:27:29;;;;;;;;;;;20.00;86.70;;;;;;5030587;28;20362;-78
2022/07/21 05:29:56;;;;;;;;;;;20.00;86.80;;;;;;5030566;28;21365;-77
2022/07/21 05:32:21;;;;;;;;;;;20.00;86.80;;;;;;5060236;23;19929;-80
2022/07/21 05:34:47;;;;;;;;;;;20.00;86.10;;;;;;5057464;28;19909;-81
2022/07/21 05:37:12;;;;;;;;;;;20.00;86.90;;;;;;5055683;28;19913;-81
2022/07/21 05:39:38;;;;;;;;;;;20.00;87.20;;;;;;5046980;28;19963;-81
2022/07/21 05:42:04;;;;;;;;;;;20.00;86.60;;;;;;5046444;28;19920;-81
2022/07/21 05:44:29;;;;;;;;;;;20.10;86.00;;;;;;5036414;28;19917;-81
2022/07/21 05:46:54;;;;;;;;;;;20.00;86.20;;;;;;5030911;28;20270;-82
2022/07/21 05:49:20;;;;;;;;;;;20.00;86.10;;;;;;5030952;28;20410;-81
2022/07/21 05:51:45;;;;;;;;;;;20.00;86.40;;;;;;5031760;28;19917;-81
2022/07/21 05:54:11;;;;;;;;;;;20.00;86.10;;;;;;5032210;28;19941;-81
2022/07/21 05:56:36;;;;;;;;;;;20.00;86.30;;;;;;5028708;28;19924;-81
2022/07/21 05:59:02;;;;;;;;;;;20.00;86.50;;;;;;5014957;28;19958;-81
2022/07/21 06:01:27;;;;;;;;;;;20.10;86.40;;;;;;5023859;28;19923;-82
2022/07/21 06:03:53;;;;;;;;;;;20.10;86.20;;;;;;5014491;28;20284;-82
2022/07/21 06:06:19;;;;;;;;;;;20.20;86.40;;;;;;5033359;28;20550;-81
2022/07/21 06:08:45;;;;;;;;;;;20.20;86.40;;;;;;5031041;28;19909;-81
2022/07/21 06:11:11;;;;;;;;;;;20.30;86.40;;;;;;5031982;28;19913;-82
2022/07/21 06:13:37;;;;;;;;;;;20.30;85.60;;;;;;5033933;28;19936;-82
2022/07/21 06:16:03;;;;;;;;;;;20.50;85.80;;;;;;5017183;28;20346;-82
2022/07/21 06:18:29;;;;;;;;;;;20.50;85.50;;;;;;5032347;28;19917;-82
2022/07/21 06:20:54;;;;;;;;;;;20.50;85.00;;;;;;5013629;28;19957;-82
2022/07/21 06:23:20;;;;;;;;;;;20.50;85.00;;;;;;5013216;28;19926;-82
2022/07/21 06:25:45;;;;;;;;;;;20.40;85.40;;;;;;5015124;28;19917;-82
2022/07/21 06:28:11;;;;;;;;;;;20.40;85.50;;;;;;5031113;28;20361;-82
2022/07/21 06:30:36;;;;;;;;;;;20.50;85.70;;;;;;5033909;28;19909;-82
2022/07/21 06:33:02;;;;;;;;;;;20.50;85.60;;;;;;5034036;28;19917;-82
2022/07/21 06:35:27;;;;;;;;;;;20.60;84.60;;;;;;5027029;28;19944;-82
2022/07/21 06:37:53;;;;;;;;;;;20.60;84.50;;;;;;5034801;28;20388;-82
2022/07/21 06:40:18;;;;;;;;;;;20.60;84.50;;;;;;5022994;28;20356;-81
2022/07/21 06:42:44;;;;;;;;;;;20.60;84.50;;;;;;5033877;28;19924;-82
2022/07/21 06:45:09;;;;;;;;;;;20.70;83.90;;;;;;5027573;28;20020;-81
2022/07/21 06:47:35;;;;;;;;;;;20.70;84.10;;;;;;5016470;28;19913;-81
2022/07/21 06:50:02;;;;;;;;;;;20.70;83.70;;;;;;5033146;28;19920;-81
2022/07/21 06:52:28;;;;;;;;;;;20.70;84.00;;;;;;5011776;28;19939;-82
2022/07/21 06:54:54;;;;;;;;;;;20.70;84.30;;;;;;5014192;28;20272;-81
2022/07/21 06:57:19;;;;;;;;;;;20.70;83.40;;;;;;5032009;28;19951;-81
2022/07/21 06:59:45;;;;;;;;;;;20.80;83.70;;;;;;5016337;28;19940;-81
2022/07/21 07:02:10;;;;;;;;;;;20.80;84.00;;;;;;5024142;28;19918;-82
2022/07/21 07:04:36;;;;;;;;;;;20.80;83.60;;;;;;5017128;28;20659;-81
2022/07/21 07:07:01;;;;;;;;;;;20.70;83.30;;;;;;5025780;28;19913;-81
2022/07/21 07:09:27;;;;;;;;;;;20.70;83.30;;;;;;5014870;28;19925;-81
2022/07/21 07:11:53;;;;;;;;;;;20.80;83.70;;;;;;5033679;28;19913;-81
2022/07/21 07:14:20;;;;;;;;;;;20.90;83.10;;;;;;5019243;28;19920;-81
2022/07/21 07:16:46;;;;;;;;;;;21.00;82.00;;;;;;5024971;28;19920;-81
2022/07/21 07:19:11;;;;;;;;;;;21.10;82.00;;;;;;5028260;28;20543;-81
2022/07/21 07:21:37;;;;;;;;;;;21.10;82.00;;;;;;5023077;28;19921;-81
2022/07/21 07:24:03;;;;;;;;;;;21.10;82.00;;;;;;5021916;28;19913;-81
2022/07/21 07:26:28;;;;;;;;;;;21.10;81.40;;;;;;5021407;28;19924;-81
2022/07/21 07:28:54;;;;;;;;;;;21.20;82.00;;;;;;5013957;28;19913;-82
2022/07/21 07:31:19;;;;;;;;;;;21.30;81.60;;;;;;5032852;28;19959;-81
2022/07/21 07:33:45;;;;;;;;;;;21.30;81.50;;;;;;5034045;28;20288;-82
2022/07/21 07:36:12;;;;;;;;;;;21.40;81.40;;;;;;5018781;28;19992;-81
2022/07/21 07:38:38;;;;;;;;;;;21.30;80.80;;;;;;5038243;28;19913;-81
2022/07/21 07:41:03;;;;;;;;;;;21.30;80.50;;;;;;5035950;28;20003;-82
2022/07/21 07:43:29;;;;;;;;;;;21.20;81.10;;;;;;5037834;28;20018;-81
2022/07/21 07:45:54;;;;;;;;;;;21.30;80.20;;;;;;5019029;28;20004;-81
2022/07/21 07:48:19;;;;;;;;;;;21.40;78.80;;;;;;5044691;28;19944;-79
2022/07/21 07:50:45;;;;;;;;;;;21.30;78.80;;;;;;5022217;28;19963;-80
2022/07/21 07:53:10;;;;;;;;;;;21.30;79.10;;;;;;5018865;28;19921;-80
2022/07/21 07:55:36;;;;;;;;;;;21.50;79.00;;;;;;5019590;28;19913;-81
2022/07/21 07:58:01;;;;;;;;;;;21.50;78.90;;;;;;5020957;28;19909;-80
2022/07/21 08:00:27;;;;;;;;;;;21.50;78.70;;;;;;5021100;28;19913;-81
2022/07/21 08:02:52;;;;;;;;;;;21.60;79.20;;;;;;5031571;28;20372;-81
2022/07/21 08:05:18;;;;;;;;;;;21.50;79.00;;;;;;5037343;28;19923;-82
2022/07/21 08:07:43;;;;;;;;;;;21.60;79.70;;;;;;5019366;28;19909;-80
2022/07/21 08:10:11;;;;;;;;;;;21.80;78.50;;;;;;5020080;28;19921;-81
2022/07/21 08:12:37;;;;;;;;;;;21.90;78.20;;;;;;5017745;28;19909;-80
2022/07/21 08:15:03;;;;;;;;;;;22.00;77.60;;;;;;5036921;28;20451;-81
2022/07/21 08:17:28;;;;;;;;;;;22.00;76.90;;;;;;5020753;28;20372;-81
2022/07/21 08:19:54;;;;;;;;;;;22.20;76.30;;;;;;5036871;28;19909;-81
2022/07/21 08:22:19;;;;;;;;;;;22.10;76.20;;;;;;5036790;28;20233;-81
2022/07/21 08:24:45;;;;;;;;;;;22.20;76.10;;;;;;5034676;28;20393;-81
2022/07/21 08:27:10;;;;;;;;;;;22.20;76.50;;;;;;5031511;28;19913;-79
2022/07/21 08:29:36;;;;;;;;;;;22.30;76.00;;;;;;5036598;28;19909;-81
2022/07/21 08:32:01;;;;;;;;;;;22.50;74.80;;;;;;5036838;28;19971;-80
2022/07/21 08:34:27;;;;;;;;;;;22.50;74.40;;;;;;5037499;28;19916;-81
2022/07/21 08:36:53;;;;;;;;;;;22.60;73.20;;;;;;5036166;28;19909;-80
2022/07/21 08:39:18;;;;;;;;;;;22.50;73.10;;;;;;5015915;28;20378;-80
2022/07/21 08:41:44;;;;;;;;;;;22.60;71.90;;;;;;5024100;28;19917;-80
2022/07/21 08:44:10;;;;;;;;;;;22.70;71.40;;;;;;5030221;28;20013;-80
2022/07/21 08:46:38;;;;;;;;;;;22.70;70.70;;;;;;5029322;28;19920;-79
2022/07/21 08:49:03;;;;;;;;;;;22.70;71.30;;;;;;5030806;28;19917;-80
2022/07/21 08:51:33;;;;;;;;;;;22.80;71.40;;;;;;5030543;28;20303;-80
2022/07/21 08:53:58;;;;;;;;;;;22.90;71.00;;;;;;5018003;28;19959;-81
2022/07/21 08:56:23;;;;;;;;;;;22.90;70.10;;;;;;5035894;28;19913;-80
2022/07/21 08:58:49;;;;;;;;;;;22.70;70.60;;;;;;5035429;28;19952;-81
2022/07/21 09:01:14;;;;;;;;;;;22.60;71.20;;;;;;5035953;28;19913;-81
2022/07/21 09:03:40;;;;;;;;;;;22.80;71.60;;;;;;5028560;28;19996;-81
2022/07/21 09:06:07;;;;;;;;;;;22.90;71.80;;;;;;5035926;28;19913;-80
2022/07/21 09:08:43;;;;;;;;;;;23.00;70.30;;;;;;5013721;28;19979;-80
2022/07/21 09:11:16;;;;;;;;;;;23.20;70.50;;;;;;5035915;28;19909;-80
2022/07/21 09:13:43;;;;;;;;;;;23.30;69.20;;;;;;5036444;28;19910;-80
2022/07/21 09:16:09;;;;;;;;;;;23.30;68.30;;;;;;5031276;28;20426;-80
2022/07/21 09:18:46;;;;;;;;;;;23.40;68.80;;;;;;5033060;28;19928;-80
2022/07/21 09:21:11;;;;;;;;;;;23.50;69.00;;;;;;5041904;28;19968;-80
2022/07/21 09:23:36;;;;;;;;;;;23.70;68.40;;;;;;5017633;28;20344;-80
2022/07/21 09:26:03;;;;;;;;;;;23.80;68.30;;;;;;5033209;28;19981;-80
2022/07/21 09:28:29;;;;;;;;;;;23.90;67.80;;;;;;5030295;28;19920;-82
2022/07/21 09:30:57;;;;;;;;;;;23.80;67.50;;;;;;5020007;28;20366;-83
2022/07/21 09:33:34;;;;;;;;;;;23.70;67.90;;;;;;5021412;28;19917;-82
2022/07/21 09:35:59;;;;;;;;;;;23.70;68.20;;;;;;5040953;28;19936;-84
2022/07/21 09:38:25;;;;;;;;;;;23.70;67.10;;;;;;5038564;28;19913;-83
2022/07/21 09:40:51;;;;;;;;;;;23.70;67.70;;;;;;5022581;28;19940;-84
2022/07/21 09:43:33;;;;;;;;;;;23.70;68.20;;;;;;5008522;28;19921;-83
2022/07/21 09:46:00;;;;;;;;;;;23.60;67.70;;;;;;5034225;28;19940;-82
2022/07/21 09:48:33;;;;;;;;;;;23.80;67.50;;;;;;5030140;28;19979;-81
2022/07/21 09:51:18;;;;;;;;;;;23.90;66.10;;;;;;5014522;28;19913;-82
2022/07/21 09:53:50;;;;;;;;;;;23.90;66.80;;;;;;5031897;28;19984;-83
2022/07/21 09:56:16;;;;;;;;;;;23.90;67.00;;;;;;5013549;28;19917;-82
2022/07/21 09:58:42;;;;;;;;;;;23.90;66.40;;;;;;5038404;28;19913;-82
2022/07/21 10:01:07;;;;;;;;;;;24.00;66.40;;;;;;5015937;28;20044;-82
2022/07/21 10:03:33;;;;;;;;;;;24.00;65.30;;;;;;5020155;28;19917;-85
2022/07/21 10:05:59;;;;;;;;;;;24.00;66.10;;;;;;5017862;28;19920;-81
2022/07/21 10:08:24;;;;;;;;;;;23.80;66.00;;;;;;5035177;28;20062;-82
2022/07/21 10:10:50;;;;;;;;;;;23.60;65.30;;;;;;5037551;28;19924;-82
2022/07/21 10:13:16;;;;;;;;;;;23.60;65.50;;;;;;5042632;28;19976;-81
2022/07/21 10:15:41;;;;;;;;;;;23.60;65.90;;;;;;5022209;28;19916;-83
2022/07/21 10:18:07;;;;;;;;;;;23.60;65.80;;;;;;5036564;28;20419;-83
2022/07/21 10:20:37;;;;;;;;;;;23.50;65.60;;;;;;5033694;28;19967;-83
2022/07/21 10:23:18;;;;;;;;;;;23.50;65.70;;;;;;5032488;28;20249;-83
2022/07/21 10:25:43;;;;;;;;;;;23.50;65.20;;;;;;5034282;28;19963;-81
2022/07/21 10:28:22;;;;;;;;;;;23.60;65.70;;;;;;5004342;28;19914;-82
2022/07/21 10:30:48;;;;;;;;;;;23.60;64.50;;;;;;4997438;28;19959;-83
2022/07/21 10:33:15;;;;;;;;;;;23.60;65.10;;;;;;5007902;28;20379;-83
2022/07/21 10:35:48;;;;;;;;;;;23.60;66.20;;;;;;5032636;28;19918;-84
2022/07/21 10:38:33;;;;;;;;;;;23.60;65.60;;;;;;5010359;28;19902;-82
2022/07/21 10:40:59;;;;;;;;;;;23.80;64.80;;;;;;5019045;28;19963;-84
2022/07/21 10:43:24;;;;;;;;;;;23.80;64.50;;;;;;5016598;28;19921;-83
2022/07/21 10:45:50;;;;;;;;;;;23.90;64.40;;;;;;5015967;28;19944;-83
2022/07/21 10:48:34;;;;;;;;;;;24.00;64.40;;;;;;5015181;28;19971;-83
2022/07/21 10:51:02;;;;;;;;;;;24.30;63.80;;;;;;5016902;28;19923;-83
2022/07/21 10:53:27;;;;;;;;;;;24.30;62.00;;;;;;5033959;28;19913;-84
2022/07/21 10:55:53;;;;;;;;;;;24.20;62.70;;;;;;5030155;28;19917;-83
2022/07/21 10:58:51;;;;;;;;;;;24.10;62.50;;;;;;5018254;28;20445;-83
2022/07/21 11:01:17;;;;;;;;;;;24.00;63.10;;;;;;4986792;28;19916;-81
2022/07/21 11:03:43;;;;;;;;;;;23.80;63.30;;;;;;5026918;28;19923;-82
2022/07/21 11:06:12;;;;;;;;;;;23.70;62.60;;;;;;5016325;28;19909;-82
2022/07/21 11:08:37;;;;;;;;;;;23.70;62.80;;;;;;5034974;28;20012;-82
2022/07/21 11:11:10;;;;;;;;;;;23.70;63.00;;;;;;5020426;28;20607;-82
2022/07/21 11:13:54;;;;;;;;;;;23.90;62.80;;;;;;5037998;28;20007;-79
2022/07/21 11:16:20;;;;;;;;;;;23.80;62.00;;;;;;5036569;28;20358;-80
2022/07/21 11:18:45;;;;;;;;;;;23.80;62.80;;;;;;5037700;28;19914;-80
2022/07/21 11:21:16;;;;;;;;;;;23.60;63.80;;;;;;5036258;28;20384;-80
2022/07/21 11:23:46;;;;;;;;;;;23.40;65.40;;;;;;5046631;28;19917;-81
2022/07/21 11:26:12;;;;;;;;;;;23.20;65.90;;;;;;5037261;28;19924;-80
2022/07/21 11:28:38;;;;;;;;;;;23.10;68.40;;;;;;5033782;28;19917;-79
2022/07/21 11:31:12;;;;;;;;;;;23.10;67.50;;;;;;5017517;28;19913;-80
2022/07/21 11:33:38;;;;;;;;;;;23.00;68.60;;;;;;5023182;28;20314;-79
2022/07/21 11:36:04;;;;;;;;;;;22.70;69.80;;;;;;5031871;28;19913;-79
2022/07/21 11:38:31;;;;;;;;;;;22.60;71.00;;;;;;5068439;22;19925;-84
2022/07/21 11:41:15;;;;;;;;;;;22.50;72.80;;;;;;5068492;28;19920;-84
2022/07/21 11:43:42;;;;;;;;;;;22.50;73.50;;;;;;5069587;28;20390;-84
2022/07/21 11:46:07;;;;;;;;;;;22.40;74.50;;;;;;5071787;28;20011;-84
2022/07/21 11:48:33;;;;;;;;;;;22.50;75.50;;;;;;5053096;28;20428;-84
2022/07/21 11:50:59;;;;;;;;;;;22.40;74.90;;;;;;5052162;28;19919;-84
2022/07/21 11:53:25;;;;;;;;;;;22.40;76.10;;;;;;5054262;28;19909;-84
2022/07/21 11:55:50;;;;;;;;;;;22.50;76.50;;;;;;5065208;28;19940;-83
2022/07/21 11:58:16;;;;;;;;;;;22.50;76.80;;;;;;5052528;28;19966;-84
2022/07/21 12:00:41;;;;;;;;;;;22.40;76.60;;;;;;5049882;28;20572;-84
2022/07/21 12:03:07;;;;;;;;;;;22.30;76.70;;;;;;5054494;28;19919;-84
2022/07/21 12:05:34;;;;;;;;;;;22.20;77.90;;;;;;5050500;28;19920;-84
2022/07/21 12:07:59;;;;;;;;;;;22.10;78.70;;;;;;5051813;28;19912;-85
2022/07/21 12:10:29;;;;;;;;;;;22.10;78.70;;;;;;5050569;28;19912;-87
2022/07/21 12:12:59;;;;;;;;;;;22.00;79.70;;;;;;5047875;28;19960;-87
2022/07/21 12:15:28;;;;;;;;;;;21.90;78.70;;;;;;5055311;28;19917;-85
2022/07/21 12:17:56;;;;;;;;;;;21.80;79.20;;;;;;5050124;28;19968;-86
2022/07/21 12:20:26;;;;;;;;;;;21.70;80.40;;;;;;5048726;28;19916;-87
2022/07/21 12:22:51;;;;;;;;;;;21.60;81.00;;;;;;5046526;28;19916;-87
2022/07/21 12:25:18;;;;;;;;;;;21.60;81.20;;;;;;5052277;28;19959;-87
2022/07/21 12:27:45;;;;;;;;;;;21.50;81.50;;;;;;5044958;28;19920;-87
2022/07/21 12:30:28;;;;;;;;;;;21.50;81.20;;;;;;5048252;28;20041;-86
2022/07/21 12:32:53;;;;;;;;;;;21.40;81.70;;;;;;5065934;28;19920;-86
2022/07/21 12:35:20;;;;;;;;;;;21.30;83.20;;;;;;5050976;28;19913;-86
2022/07/21 12:37:53;;;;;;;;;;;21.20;81.90;;;;;;5053801;28;19917;-86
2022/07/21 12:40:19;;;;;;;;;;;21.20;82.70;;;;;;5052204;28;20291;-86
2022/07/21 12:42:45;;;;;;;;;;;21.30;83.10;;;;;;5052475;28;19923;-86
2022/07/21 12:45:14;;;;;;;;;;;21.40;82.70;;;;;;5051534;28;20011;-87
2022/07/21 12:47:40;;;;;;;;;;;21.60;83.00;;;;;;5051229;28;19921;-84
2022/07/21 12:50:07;;;;;;;;;;;21.60;82.20;;;;;;5041414;28;20019;-84
2022/07/21 12:52:33;;;;;;;;;;;21.60;82.60;;;;;;5051996;28;20019;-83
2022/07/21 12:54:59;;;;;;;;;;;21.50;82.40;;;;;;5058123;28;20004;-83
2022/07/21 12:57:26;;;;;;;;;;;21.60;82.60;;;;;;5044287;28;20362;-83
2022/07/21 12:59:51;;;;;;;;;;;21.70;82.50;;;;;;5045616;28;19970;-83
2022/07/21 13:02:17;;;;;;;;;;;21.60;82.30;;;;;;5042798;28;19944;-83
2022/07/21 13:04:42;;;;;;;;;;;21.50;83.00;;;;;;5052800;28;20027;-83
2022/07/21 13:07:08;;;;;;;;;;;21.30;83.10;;;;;;5052176;28;19931;-85
2022/07/21 13:09:33;;;;;;;;;;;21.10;83.70;;;;;;5053686;28;19905;-84
2022/07/21 13:11:59;;;;;;;;;;;21.20;84.40;;;;;;5046432;28;19913;-84
2022/07/21 13:14:24;;;;;;;;;;;21.10;84.20;;;;;;5055598;28;19920;-85
2022/07/21 13:16:50;;;;;;;;;;;21.10;83.50;;;;;;5057550;28;20487;-83
2022/07/21 13:19:15;;;;;;;;;;;21.00;84.20;;;;;;5045717;28;19924;-84
2022/07/21 13:21:40;;;;;;;;;;;21.10;84.50;;;;;;5054924;28;20023;-85
2022/07/21 13:24:06;;;;;;;;;;;21.10;84.50;;;;;;5046049;28;19954;-84
2022/07/21 13:26:32;;;;;;;;;;;21.20;84.40;;;;;;5049565;28;19990;-84
2022/07/21 13:28:57;;;;;;;;;;;21.30;84.10;;;;;;5041261;28;19912;-84
2022/07/21 13:31:22;;;;;;;;;;;21.40;83.50;;;;;;5050468;28;20011;-85
2022/07/21 13:33:48;;;;;;;;;;;21.30;83.60;;;;;;5047321;28;19975;-85
2022/07/21 13:36:14;;;;;;;;;;;21.50;83.60;;;;;;5051382;28;19913;-85
2022/07/21 13:38:39;;;;;;;;;;;21.40;83.70;;;;;;5051957;28;19978;-85
2022/07/21 13:41:05;;;;;;;;;;;21.20;83.90;;;;;;5051796;28;19925;-85
2022/07/21 13:43:31;;;;;;;;;;;21.20;84.10;;;;;;5051971;28;20012;-85
2022/07/21 13:45:56;;;;;;;;;;;21.10;84.40;;;;;;5052063;28;19917;-84
2022/07/21 13:48:22;;;;;;;;;;;21.10;84.30;;;;;;5050958;28;19912;-84
2022/07/21 13:50:47;;;;;;;;;;;21.10;83.90;;;;;;5058301;28;19967;-86
2022/07/21 13:53:13;;;;;;;;;;;21.00;84.50;;;;;;5065599;28;19920;-86
2022/07/21 13:55:38;;;;;;;;;;;21.10;84.70;;;;;;5068830;28;19909;-85
2022/07/21 13:58:06;;;;;;;;;;;21.10;84.40;;;;;;5061448;28;19984;-85
2022/07/21 14:00:32;;;;;;;;;;;21.00;83.50;;;;;;5056216;28;19913;-85
2022/07/21 14:02:57;;;;;;;;;;;21.00;83.30;;;;;;5052746;28;20027;-86
2022/07/21 14:05:23;;;;;;;;;;;21.00;84.20;;;;;;5051665;28;19919;-87
2022/07/21 14:07:48;;;;;;;;;;;20.90;84.10;;;;;;5052230;28;19909;-86
2022/07/21 14:10:15;;;;;;;;;;;20.80;84.40;;;;;;5052672;28;19956;-85
2022/07/21 14:12:41;;;;;;;;;;;20.70;85.40;;;;;;5051905;28;20376;-86
2022/07/21 14:15:06;;;;;;;;;;;20.60;85.40;;;;;;5051932;28;19919;-86